sensor_id;sensor_type;location;lat;lon;timestamp;P1;durP1;ratioP1;P2;durP2;ratioP2
12214;SDS011;6170;42.206;24.142;2022-12-20T00:00:48;24.55;;;13.43;;
12214;SDS011;6170;42.206;24.142;2022-12-20T00:03:15;29.42;;;13.80;;
12214;SDS011;6170;42.206;24.142;2022-12-20T00:05:42;26.90;;;14.38;;
12214;SDS011;6170;42.206;24.142;2022-12-20T00:08:09;27.58;;;14.55;;
12214;SDS011;6170;42.206;24.142;2022-12-20T00:10:36;25.83;;;14.25;;
12214;SDS011;6170;42.206;24.142;2022-12-20T00:13:04;20.25;;;12.07;;
12214;SDS011;6170;42.206;24.142;2022-12-20T00:15:33;23.63;;;13.25;;
12214;SDS011;6170;42.206;24.142;2022-12-20T00:18:00;25.70;;;13.68;;
12214;SDS011;6170;42.206;24.142;2022-12-20T00:20:27;27.85;;;14.07;;
12214;SDS011;6170;42.206;24.142;2022-12-20T00:22:54;26.40;;;13.88;;
12214;SDS011;6170;42.206;24.142;2022-12-20T00:25:21;24.30;;;12.82;;
12214;SDS011;6170;42.206;24.142;2022-12-20T00:27:48;28.30;;;13.70;;
12214;SDS011;6170;42.206;24.142;2022-12-20T00:30:15;21.92;;;12.30;;
12214;SDS011;6170;42.206;24.142;2022-12-20T00:32:44;22.35;;;12.18;;
12214;SDS011;6170;42.206;24.142;2022-12-20T00:35:11;21.30;;;12.23;;
12214;SDS011;6170;42.206;24.142;2022-12-20T00:37:38;23.77;;;13.07;;
12214;SDS011;6170;42.206;24.142;2022-12-20T00:40:05;26.02;;;12.52;;
12214;SDS011;6170;42.206;24.142;2022-12-20T00:42:33;23.13;;;12.98;;
12214;SDS011;6170;42.206;24.142;2022-12-20T00:45:00;25.80;;;12.88;;
12214;SDS011;6170;42.206;24.142;2022-12-20T00:47:26;26.20;;;13.27;;
12214;SDS011;6170;42.206;24.142;2022-12-20T00:49:54;26.88;;;13.77;;
12214;SDS011;6170;42.206;24.142;2022-12-20T00:52:21;26.98;;;14.23;;
12214;SDS011;6170;42.206;24.142;2022-12-20T00:54:48;25.27;;;13.18;;
12214;SDS011;6170;42.206;24.142;2022-12-20T00:57:15;23.85;;;13.68;;
12214;SDS011;6170;42.206;24.142;2022-12-20T00:59:41;25.27;;;14.07;;
12214;SDS011;6170;42.206;24.142;2022-12-20T01:02:08;27.88;;;13.93;;
12214;SDS011;6170;42.206;24.142;2022-12-20T01:04:35;25.30;;;14.10;;
12214;SDS011;6170;42.206;24.142;2022-12-20T01:07:03;21.45;;;12.45;;
12214;SDS011;6170;42.206;24.142;2022-12-20T01:09:30;24.85;;;12.38;;
12214;SDS011;6170;42.206;24.142;2022-12-20T01:11:57;26.08;;;13.40;;
12214;SDS011;6170;42.206;24.142;2022-12-20T01:14:24;26.98;;;13.48;;
12214;SDS011;6170;42.206;24.142;2022-12-20T01:16:50;25.80;;;14.02;;
12214;SDS011;6170;42.206;24.142;2022-12-20T01:19:17;25.35;;;13.75;;
12214;SDS011;6170;42.206;24.142;2022-12-20T01:21:44;25.60;;;13.25;;
12214;SDS011;6170;42.206;24.142;2022-12-20T01:24:13;25.60;;;13.95;;
12214;SDS011;6170;42.206;24.142;2022-12-20T01:26:41;24.48;;;12.75;;
12214;SDS011;6170;42.206;24.142;2022-12-20T01:29:08;24.27;;;12.90;;
12214;SDS011;6170;42.206;24.142;2022-12-20T01:31:35;22.15;;;12.50;;
12214;SDS011;6170;42.206;24.142;2022-12-20T01:34:02;25.80;;;13.13;;
12214;SDS011;6170;42.206;24.142;2022-12-20T01:36:29;22.90;;;12.05;;
12214;SDS011;6170;42.206;24.142;2022-12-20T01:38:58;27.75;;;13.15;;
12214;SDS011;6170;42.206;24.142;2022-12-20T01:41:28;28.08;;;13.40;;
12214;SDS011;6170;42.206;24.142;2022-12-20T01:43:57;27.23;;;13.32;;
12214;SDS011;6170;42.206;24.142;2022-12-20T01:46:25;28.52;;;12.82;;
12214;SDS011;6170;42.206;24.142;2022-12-20T01:48:54;23.17;;;12.82;;
12214;SDS011;6170;42.206;24.142;2022-12-20T01:51:25;23.10;;;12.98;;
12214;SDS011;6170;42.206;24.142;2022-12-20T01:53:55;24.40;;;13.15;;
12214;SDS011;6170;42.206;24.142;2022-12-20T01:56:28;26.02;;;13.73;;
12214;SDS011;6170;42.206;24.142;2022-12-20T01:58:54;26.83;;;14.45;;
12214;SDS011;6170;42.206;24.142;2022-12-20T02:01:23;28.45;;;14.63;;
12214;SDS011;6170;42.206;24.142;2022-12-20T02:03:50;25.65;;;13.38;;
12214;SDS011;6170;42.206;24.142;2022-12-20T02:06:19;29.25;;;13.90;;
12214;SDS011;6170;42.206;24.142;2022-12-20T02:08:48;25.90;;;13.82;;
12214;SDS011;6170;42.206;24.142;2022-12-20T02:11:23;22.77;;;12.68;;
12214;SDS011;6170;42.206;24.142;2022-12-20T02:14:11;26.33;;;14.17;;
12214;SDS011;6170;42.206;24.142;2022-12-20T02:16:47;27.20;;;14.50;;
12214;SDS011;6170;42.206;24.142;2022-12-20T02:19:30;27.02;;;14.45;;
12214;SDS011;6170;42.206;24.142;2022-12-20T02:22:23;26.42;;;13.57;;
12214;SDS011;6170;42.206;24.142;2022-12-20T02:25:03;31.48;;;14.00;;
12214;SDS011;6170;42.206;24.142;2022-12-20T02:28:00;27.08;;;14.07;;
12214;SDS011;6170;42.206;24.142;2022-12-20T02:30:33;27.58;;;15.18;;
12214;SDS011;6170;42.206;24.142;2022-12-20T02:33:05;28.15;;;14.68;;
12214;SDS011;6170;42.206;24.142;2022-12-20T02:35:36;28.40;;;15.02;;
12214;SDS011;6170;42.206;24.142;2022-12-20T02:38:23;25.77;;;15.00;;
12214;SDS011;6170;42.206;24.142;2022-12-20T02:40:52;28.35;;;13.93;;
12214;SDS011;6170;42.206;24.142;2022-12-20T02:43:23;29.85;;;15.85;;
12214;SDS011;6170;42.206;24.142;2022-12-20T02:46:11;31.05;;;15.48;;
12214;SDS011;6170;42.206;24.142;2022-12-20T02:48:39;30.70;;;15.68;;
12214;SDS011;6170;42.206;24.142;2022-12-20T02:51:07;29.40;;;16.25;;
12214;SDS011;6170;42.206;24.142;2022-12-20T02:53:36;38.10;;;16.58;;
12214;SDS011;6170;42.206;24.142;2022-12-20T02:56:04;33.97;;;15.10;;
12214;SDS011;6170;42.206;24.142;2022-12-20T02:58:39;29.08;;;15.05;;
12214;SDS011;6170;42.206;24.142;2022-12-20T03:01:17;27.08;;;15.43;;
12214;SDS011;6170;42.206;24.142;2022-12-20T03:03:48;31.08;;;14.27;;
12214;SDS011;6170;42.206;24.142;2022-12-20T03:06:16;28.75;;;14.20;;
12214;SDS011;6170;42.206;24.142;2022-12-20T03:08:43;26.42;;;14.20;;
12214;SDS011;6170;42.206;24.142;2022-12-20T03:11:10;28.88;;;15.32;;
12214;SDS011;6170;42.206;24.142;2022-12-20T03:13:37;29.27;;;14.05;;
12214;SDS011;6170;42.206;24.142;2022-12-20T03:16:04;29.23;;;14.70;;
12214;SDS011;6170;42.206;24.142;2022-12-20T03:18:33;32.33;;;14.35;;
12214;SDS011;6170;42.206;24.142;2022-12-20T03:21:00;32.03;;;15.35;;
12214;SDS011;6170;42.206;24.142;2022-12-20T03:23:26;26.67;;;14.52;;
12214;SDS011;6170;42.206;24.142;2022-12-20T03:25:54;35.35;;;14.70;;
12214;SDS011;6170;42.206;24.142;2022-12-20T03:28:20;33.42;;;14.77;;
12214;SDS011;6170;42.206;24.142;2022-12-20T03:30:47;29.60;;;14.48;;
12214;SDS011;6170;42.206;24.142;2022-12-20T03:33:14;29.85;;;15.20;;
12214;SDS011;6170;42.206;24.142;2022-12-20T03:35:42;28.00;;;14.52;;
12214;SDS011;6170;42.206;24.142;2022-12-20T03:38:09;31.67;;;15.57;;
12214;SDS011;6170;42.206;24.142;2022-12-20T03:40:36;28.95;;;14.45;;
12214;SDS011;6170;42.206;24.142;2022-12-20T03:43:03;35.60;;;16.20;;
12214;SDS011;6170;42.206;24.142;2022-12-20T03:45:29;30.00;;;14.70;;
12214;SDS011;6170;42.206;24.142;2022-12-20T03:47:56;32.97;;;16.67;;
12214;SDS011;6170;42.206;24.142;2022-12-20T03:50:23;31.95;;;15.98;;
12214;SDS011;6170;42.206;24.142;2022-12-20T03:52:51;31.13;;;16.30;;
12214;SDS011;6170;42.206;24.142;2022-12-20T03:55:18;26.98;;;15.05;;
12214;SDS011;6170;42.206;24.142;2022-12-20T03:57:44;33.85;;;16.38;;
12214;SDS011;6170;42.206;24.142;2022-12-20T04:00:12;37.78;;;17.50;;
12214;SDS011;6170;42.206;24.142;2022-12-20T04:02:39;37.03;;;16.83;;
12214;SDS011;6170;42.206;24.142;2022-12-20T04:05:06;38.15;;;16.40;;
12214;SDS011;6170;42.206;24.142;2022-12-20T04:07:33;32.45;;;15.73;;
12214;SDS011;6170;42.206;24.142;2022-12-20T04:10:02;35.13;;;16.60;;
12214;SDS011;6170;42.206;24.142;2022-12-20T04:12:29;38.55;;;17.02;;
12214;SDS011;6170;42.206;24.142;2022-12-20T04:14:56;37.50;;;17.48;;
12214;SDS011;6170;42.206;24.142;2022-12-20T04:17:23;41.97;;;18.25;;
12214;SDS011;6170;42.206;24.142;2022-12-20T04:19:49;38.63;;;17.50;;
12214;SDS011;6170;42.206;24.142;2022-12-20T04:22:16;32.03;;;16.70;;
12214;SDS011;6170;42.206;24.142;2022-12-20T04:24:43;36.72;;;16.88;;
12214;SDS011;6170;42.206;24.142;2022-12-20T04:27:11;33.47;;;16.40;;
12214;SDS011;6170;42.206;24.142;2022-12-20T04:29:38;37.10;;;16.60;;
12214;SDS011;6170;42.206;24.142;2022-12-20T04:32:05;41.40;;;17.48;;
12214;SDS011;6170;42.206;24.142;2022-12-20T04:34:31;33.05;;;16.58;;
12214;SDS011;6170;42.206;24.142;2022-12-20T04:36:58;31.08;;;16.02;;
12214;SDS011;6170;42.206;24.142;2022-12-20T04:39:25;31.67;;;16.50;;
12214;SDS011;6170;42.206;24.142;2022-12-20T04:41:52;35.97;;;16.77;;
12214;SDS011;6170;42.206;24.142;2022-12-20T04:44:20;33.42;;;16.23;;
12214;SDS011;6170;42.206;24.142;2022-12-20T04:46:46;36.30;;;16.05;;
12214;SDS011;6170;42.206;24.142;2022-12-20T04:49:13;39.75;;;17.08;;
12214;SDS011;6170;42.206;24.142;2022-12-20T04:51:40;32.55;;;16.20;;
12214;SDS011;6170;42.206;24.142;2022-12-20T04:54:07;37.53;;;17.50;;
12214;SDS011;6170;42.206;24.142;2022-12-20T04:56:33;35.92;;;17.50;;
12214;SDS011;6170;42.206;24.142;2022-12-20T04:58:59;34.90;;;17.95;;
12214;SDS011;6170;42.206;24.142;2022-12-20T05:01:28;31.33;;;16.52;;
12214;SDS011;6170;42.206;24.142;2022-12-20T05:03:55;33.58;;;17.27;;
12214;SDS011;6170;42.206;24.142;2022-12-20T05:06:21;38.75;;;17.73;;
12214;SDS011;6170;42.206;24.142;2022-12-20T05:08:48;36.40;;;17.70;;
12214;SDS011;6170;42.206;24.142;2022-12-20T05:11:15;37.03;;;17.85;;
12214;SDS011;6170;42.206;24.142;2022-12-20T05:13:42;38.97;;;18.42;;
12214;SDS011;6170;42.206;24.142;2022-12-20T05:16:08;40.00;;;17.63;;
12214;SDS011;6170;42.206;24.142;2022-12-20T05:18:36;47.85;;;19.80;;
12214;SDS011;6170;42.206;24.142;2022-12-20T05:21:03;42.00;;;20.55;;
12214;SDS011;6170;42.206;24.142;2022-12-20T05:23:48;39.28;;;19.08;;
12214;SDS011;6170;42.206;24.142;2022-12-20T05:26:32;42.92;;;21.08;;
12214;SDS011;6170;42.206;24.142;2022-12-20T05:29:01;44.70;;;20.90;;
12214;SDS011;6170;42.206;24.142;2022-12-20T05:31:29;43.60;;;21.17;;
12214;SDS011;6170;42.206;24.142;2022-12-20T05:33:57;42.80;;;20.27;;
12214;SDS011;6170;42.206;24.142;2022-12-20T05:36:24;45.17;;;21.95;;
12214;SDS011;6170;42.206;24.142;2022-12-20T05:38:51;43.13;;;22.35;;
12214;SDS011;6170;42.206;24.142;2022-12-20T05:41:18;47.90;;;22.08;;
12214;SDS011;6170;42.206;24.142;2022-12-20T05:43:45;40.15;;;19.35;;
12214;SDS011;6170;42.206;24.142;2022-12-20T05:46:11;38.35;;;18.92;;
12214;SDS011;6170;42.206;24.142;2022-12-20T05:48:38;45.17;;;19.80;;
12214;SDS011;6170;42.206;24.142;2022-12-20T05:51:06;40.47;;;21.08;;
12214;SDS011;6170;42.206;24.142;2022-12-20T05:53:33;38.30;;;19.90;;
12214;SDS011;6170;42.206;24.142;2022-12-20T05:56:00;43.28;;;22.25;;
12214;SDS011;6170;42.206;24.142;2022-12-20T05:58:27;43.67;;;21.48;;
12214;SDS011;6170;42.206;24.142;2022-12-20T06:00:54;48.75;;;23.15;;
12214;SDS011;6170;42.206;24.142;2022-12-20T06:03:21;43.38;;;21.92;;
12214;SDS011;6170;42.206;24.142;2022-12-20T06:05:48;46.03;;;22.88;;
12214;SDS011;6170;42.206;24.142;2022-12-20T06:08:16;51.15;;;25.08;;
12214;SDS011;6170;42.206;24.142;2022-12-20T06:10:43;60.78;;;30.35;;
12214;SDS011;6170;42.206;24.142;2022-12-20T06:13:10;56.92;;;28.35;;
12214;SDS011;6170;42.206;24.142;2022-12-20T06:15:37;58.53;;;27.55;;
12214;SDS011;6170;42.206;24.142;2022-12-20T06:18:04;57.38;;;28.27;;
12214;SDS011;6170;42.206;24.142;2022-12-20T06:20:32;52.55;;;27.23;;
12214;SDS011;6170;42.206;24.142;2022-12-20T06:22:59;50.22;;;25.67;;
12214;SDS011;6170;42.206;24.142;2022-12-20T06:25:28;48.70;;;25.50;;
12214;SDS011;6170;42.206;24.142;2022-12-20T06:27:55;51.92;;;25.02;;
12214;SDS011;6170;42.206;24.142;2022-12-20T06:30:22;51.75;;;23.60;;
12214;SDS011;6170;42.206;24.142;2022-12-20T06:32:49;44.35;;;23.55;;
12214;SDS011;6170;42.206;24.142;2022-12-20T06:35:16;45.85;;;22.98;;
12214;SDS011;6170;42.206;24.142;2022-12-20T06:37:42;48.80;;;23.27;;
12214;SDS011;6170;42.206;24.142;2022-12-20T06:40:10;55.22;;;26.40;;
12214;SDS011;6170;42.206;24.142;2022-12-20T06:42:39;58.63;;;28.67;;
12214;SDS011;6170;42.206;24.142;2022-12-20T06:45:07;50.38;;;24.00;;
12214;SDS011;6170;42.206;24.142;2022-12-20T06:47:34;46.22;;;22.13;;
12214;SDS011;6170;42.206;24.142;2022-12-20T06:50:01;42.10;;;21.90;;
12214;SDS011;6170;42.206;24.142;2022-12-20T06:52:28;48.80;;;22.35;;
12214;SDS011;6170;42.206;24.142;2022-12-20T06:54:55;47.35;;;22.92;;
12214;SDS011;6170;42.206;24.142;2022-12-20T06:57:22;53.05;;;23.20;;
12214;SDS011;6170;42.206;24.142;2022-12-20T06:59:50;51.08;;;24.58;;
12214;SDS011;6170;42.206;24.142;2022-12-20T07:02:17;51.35;;;23.70;;
12214;SDS011;6170;42.206;24.142;2022-12-20T07:04:43;42.83;;;22.60;;
12214;SDS011;6170;42.206;24.142;2022-12-20T07:07:11;49.80;;;23.65;;
12214;SDS011;6170;42.206;24.142;2022-12-20T07:09:38;69.22;;;31.27;;
12214;SDS011;6170;42.206;24.142;2022-12-20T07:12:06;68.43;;;28.95;;
12214;SDS011;6170;42.206;24.142;2022-12-20T07:14:33;57.17;;;24.08;;
12214;SDS011;6170;42.206;24.142;2022-12-20T07:17:02;49.30;;;23.17;;
12214;SDS011;6170;42.206;24.142;2022-12-20T07:19:29;44.65;;;22.23;;
12214;SDS011;6170;42.206;24.142;2022-12-20T07:21:56;37.75;;;20.40;;
12214;SDS011;6170;42.206;24.142;2022-12-20T07:24:23;36.72;;;19.63;;
12214;SDS011;6170;42.206;24.142;2022-12-20T07:26:49;35.55;;;19.65;;
12214;SDS011;6170;42.206;24.142;2022-12-20T07:29:16;37.47;;;19.38;;
12214;SDS011;6170;42.206;24.142;2022-12-20T07:31:43;32.72;;;18.65;;
12214;SDS011;6170;42.206;24.142;2022-12-20T07:34:11;34.42;;;17.58;;
12214;SDS011;6170;42.206;24.142;2022-12-20T07:36:38;38.25;;;18.38;;
12214;SDS011;6170;42.206;24.142;2022-12-20T07:39:05;31.27;;;16.80;;
12214;SDS011;6170;42.206;24.142;2022-12-20T07:41:31;30.88;;;16.80;;
12214;SDS011;6170;42.206;24.142;2022-12-20T07:43:59;48.42;;;26.90;;
12214;SDS011;6170;42.206;24.142;2022-12-20T07:46:26;30.27;;;14.73;;
12214;SDS011;6170;42.206;24.142;2022-12-20T07:48:52;33.25;;;16.88;;
12214;SDS011;6170;42.206;24.142;2022-12-20T07:51:22;27.65;;;15.23;;
12214;SDS011;6170;42.206;24.142;2022-12-20T07:53:52;28.48;;;14.73;;
12214;SDS011;6170;42.206;24.142;2022-12-20T07:56:24;30.95;;;16.75;;
12214;SDS011;6170;42.206;24.142;2022-12-20T07:58:52;33.15;;;13.65;;
12214;SDS011;6170;42.206;24.142;2022-12-20T08:01:23;28.00;;;14.20;;
12214;SDS011;6170;42.206;24.142;2022-12-20T08:03:51;29.23;;;14.82;;
12214;SDS011;6170;42.206;24.142;2022-12-20T08:06:23;29.55;;;13.57;;
12214;SDS011;6170;42.206;24.142;2022-12-20T08:08:51;26.27;;;12.80;;
12214;SDS011;6170;42.206;24.142;2022-12-20T08:11:22;28.27;;;15.33;;
12214;SDS011;6170;42.206;24.142;2022-12-20T08:13:50;30.13;;;15.43;;
12214;SDS011;6170;42.206;24.142;2022-12-20T08:16:17;24.48;;;14.25;;
12214;SDS011;6170;42.206;24.142;2022-12-20T08:18:44;26.80;;;14.10;;
12214;SDS011;6170;42.206;24.142;2022-12-20T08:21:10;34.72;;;16.50;;
12214;SDS011;6170;42.206;24.142;2022-12-20T08:23:40;37.15;;;19.42;;
12214;SDS011;6170;42.206;24.142;2022-12-20T08:26:06;35.10;;;19.05;;
12214;SDS011;6170;42.206;24.142;2022-12-20T08:28:33;27.73;;;15.00;;
12214;SDS011;6170;42.206;24.142;2022-12-20T08:31:00;30.25;;;15.57;;
12214;SDS011;6170;42.206;24.142;2022-12-20T08:33:27;35.30;;;17.67;;
12214;SDS011;6170;42.206;24.142;2022-12-20T08:35:58;29.90;;;16.08;;
12214;SDS011;6170;42.206;24.142;2022-12-20T08:38:26;29.02;;;15.57;;
12214;SDS011;6170;42.206;24.142;2022-12-20T08:40:55;29.70;;;15.90;;
12214;SDS011;6170;42.206;24.142;2022-12-20T08:43:27;39.60;;;20.73;;
12214;SDS011;6170;42.206;24.142;2022-12-20T08:45:54;38.40;;;19.25;;
12214;SDS011;6170;42.206;24.142;2022-12-20T08:48:21;37.42;;;19.15;;
12214;SDS011;6170;42.206;24.142;2022-12-20T08:50:52;35.88;;;20.23;;
12214;SDS011;6170;42.206;24.142;2022-12-20T08:53:20;31.85;;;17.58;;
12214;SDS011;6170;42.206;24.142;2022-12-20T08:55:46;36.10;;;18.60;;
12214;SDS011;6170;42.206;24.142;2022-12-20T08:58:14;41.97;;;23.40;;
12214;SDS011;6170;42.206;24.142;2022-12-20T09:00:41;36.72;;;19.05;;
12214;SDS011;6170;42.206;24.142;2022-12-20T09:03:08;77.70;;;35.28;;
12214;SDS011;6170;42.206;24.142;2022-12-20T09:05:41;55.97;;;28.17;;
12214;SDS011;6170;42.206;24.142;2022-12-20T09:08:09;50.22;;;26.35;;
12214;SDS011;6170;42.206;24.142;2022-12-20T09:10:36;42.92;;;24.90;;
12214;SDS011;6170;42.206;24.142;2022-12-20T09:13:02;45.95;;;26.27;;
12214;SDS011;6170;42.206;24.142;2022-12-20T09:15:31;50.30;;;25.50;;
12214;SDS011;6170;42.206;24.142;2022-12-20T09:17:59;50.10;;;25.55;;
12214;SDS011;6170;42.206;24.142;2022-12-20T09:20:26;64.05;;;29.10;;
12214;SDS011;6170;42.206;24.142;2022-12-20T09:22:52;41.65;;;24.17;;
12214;SDS011;6170;42.206;24.142;2022-12-20T09:25:19;42.10;;;24.13;;
12214;SDS011;6170;42.206;24.142;2022-12-20T09:27:46;53.22;;;25.35;;
12214;SDS011;6170;42.206;24.142;2022-12-20T09:30:13;36.13;;;20.35;;
12214;SDS011;6170;42.206;24.142;2022-12-20T09:32:41;40.85;;;20.80;;
12214;SDS011;6170;42.206;24.142;2022-12-20T09:35:08;37.38;;;19.67;;
12214;SDS011;6170;42.206;24.142;2022-12-20T09:37:35;37.15;;;21.48;;
12214;SDS011;6170;42.206;24.142;2022-12-20T09:40:02;37.78;;;20.73;;
12214;SDS011;6170;42.206;24.142;2022-12-20T09:42:29;43.33;;;24.30;;
12214;SDS011;6170;42.206;24.142;2022-12-20T09:44:59;45.25;;;25.17;;
12214;SDS011;6170;42.206;24.142;2022-12-20T09:47:28;43.63;;;23.23;;
12214;SDS011;6170;42.206;24.142;2022-12-20T09:50:01;71.10;;;38.60;;
12214;SDS011;6170;42.206;24.142;2022-12-20T09:55:23;41.47;;;20.92;;
12214;SDS011;6170;42.206;24.142;2022-12-20T09:58:02;29.45;;;17.58;;
12214;SDS011;6170;42.206;24.142;2022-12-20T10:00:41;29.98;;;16.45;;
12214;SDS011;6170;42.206;24.142;2022-12-20T10:03:11;30.83;;;17.38;;
12214;SDS011;6170;42.206;24.142;2022-12-20T10:05:45;59.13;;;28.52;;
12214;SDS011;6170;42.206;24.142;2022-12-20T10:08:22;30.60;;;17.45;;
12214;SDS011;6170;42.206;24.142;2022-12-20T10:10:56;33.35;;;16.88;;
12214;SDS011;6170;42.206;24.142;2022-12-20T10:13:36;28.17;;;15.93;;
12214;SDS011;6170;42.206;24.142;2022-12-20T10:16:16;30.05;;;15.07;;
12214;SDS011;6170;42.206;24.142;2022-12-20T10:18:57;29.25;;;15.30;;
12214;SDS011;6170;42.206;24.142;2022-12-20T10:21:33;24.92;;;14.00;;
12214;SDS011;6170;42.206;24.142;2022-12-20T10:24:09;29.77;;;15.50;;
12214;SDS011;6170;42.206;24.142;2022-12-20T10:26:41;27.83;;;14.45;;
12214;SDS011;6170;42.206;24.142;2022-12-20T10:29:10;26.13;;;13.45;;
12214;SDS011;6170;42.206;24.142;2022-12-20T10:31:37;26.20;;;13.35;;
12214;SDS011;6170;42.206;24.142;2022-12-20T10:34:04;26.35;;;13.43;;
12214;SDS011;6170;42.206;24.142;2022-12-20T10:36:34;26.17;;;14.25;;
12214;SDS011;6170;42.206;24.142;2022-12-20T10:39:02;28.08;;;14.23;;
12214;SDS011;6170;42.206;24.142;2022-12-20T10:41:31;29.77;;;13.88;;
12214;SDS011;6170;42.206;24.142;2022-12-20T10:44:15;21.40;;;12.43;;
12214;SDS011;6170;42.206;24.142;2022-12-20T10:46:45;22.95;;;12.38;;
12214;SDS011;6170;42.206;24.142;2022-12-20T10:49:22;24.63;;;13.00;;
12214;SDS011;6170;42.206;24.142;2022-12-20T10:51:55;19.10;;;11.82;;
12214;SDS011;6170;42.206;24.142;2022-12-20T10:54:24;21.63;;;11.77;;
12214;SDS011;6170;42.206;24.142;2022-12-20T10:56:57;26.80;;;12.27;;
12214;SDS011;6170;42.206;24.142;2022-12-20T10:59:28;23.15;;;11.00;;
12214;SDS011;6170;42.206;24.142;2022-12-20T11:01:58;24.30;;;12.00;;
12214;SDS011;6170;42.206;24.142;2022-12-20T11:04:26;22.02;;;11.35;;
12214;SDS011;6170;42.206;24.142;2022-12-20T11:06:56;20.00;;;11.10;;
12214;SDS011;6170;42.206;24.142;2022-12-20T11:09:25;22.20;;;12.23;;
12214;SDS011;6170;42.206;24.142;2022-12-20T11:11:58;21.27;;;12.32;;
12214;SDS011;6170;42.206;24.142;2022-12-20T11:14:27;22.13;;;12.45;;
12214;SDS011;6170;42.206;24.142;2022-12-20T11:16:54;24.25;;;13.05;;
12214;SDS011;6170;42.206;24.142;2022-12-20T11:19:29;20.63;;;12.05;;
12214;SDS011;6170;42.206;24.142;2022-12-20T11:22:04;21.55;;;10.30;;
12214;SDS011;6170;42.206;24.142;2022-12-20T11:24:44;21.20;;;11.60;;
12214;SDS011;6170;42.206;24.142;2022-12-20T11:27:22;19.88;;;12.13;;
12214;SDS011;6170;42.206;24.142;2022-12-20T11:32:49;29.45;;;14.75;;
12214;SDS011;6170;42.206;24.142;2022-12-20T11:35:29;17.85;;;11.10;;
12214;SDS011;6170;42.206;24.142;2022-12-20T11:38:09;23.85;;;12.55;;
12214;SDS011;6170;42.206;24.142;2022-12-20T11:40:43;20.48;;;11.75;;
12214;SDS011;6170;42.206;24.142;2022-12-20T11:43:21;21.73;;;12.07;;
12214;SDS011;6170;42.206;24.142;2022-12-20T11:46:03;22.33;;;12.10;;
12214;SDS011;6170;42.206;24.142;2022-12-20T11:48:47;20.05;;;11.25;;
12214;SDS011;6170;42.206;24.142;2022-12-20T11:51:23;18.48;;;10.68;;
12214;SDS011;6170;42.206;24.142;2022-12-20T11:53:57;20.08;;;11.73;;
12214;SDS011;6170;42.206;24.142;2022-12-20T11:56:29;17.33;;;10.15;;
12214;SDS011;6170;42.206;24.142;2022-12-20T11:59:01;20.63;;;10.65;;
12214;SDS011;6170;42.206;24.142;2022-12-20T12:01:32;22.17;;;12.35;;
12214;SDS011;6170;42.206;24.142;2022-12-20T12:04:05;20.70;;;12.05;;
12214;SDS011;6170;42.206;24.142;2022-12-20T12:06:37;21.98;;;11.23;;
12214;SDS011;6170;42.206;24.142;2022-12-20T12:09:13;30.55;;;14.25;;
12214;SDS011;6170;42.206;24.142;2022-12-20T12:11:46;25.52;;;12.38;;
12214;SDS011;6170;42.206;24.142;2022-12-20T12:14:20;28.40;;;12.43;;
12214;SDS011;6170;42.206;24.142;2022-12-20T12:16:54;22.67;;;11.82;;
12214;SDS011;6170;42.206;24.142;2022-12-20T12:19:27;22.30;;;11.52;;
12214;SDS011;6170;42.206;24.142;2022-12-20T12:21:58;23.92;;;11.88;;
12214;SDS011;6170;42.206;24.142;2022-12-20T12:24:30;19.42;;;11.55;;
12214;SDS011;6170;42.206;24.142;2022-12-20T12:27:02;20.00;;;11.80;;
12214;SDS011;6170;42.206;24.142;2022-12-20T12:29:29;22.20;;;12.07;;
12214;SDS011;6170;42.206;24.142;2022-12-20T12:31:59;26.02;;;12.95;;
12214;SDS011;6170;42.206;24.142;2022-12-20T12:34:37;32.75;;;15.10;;
12214;SDS011;6170;42.206;24.142;2022-12-20T12:46:13;20.60;;;11.23;;
12214;SDS011;6170;42.206;24.142;2022-12-20T12:48:44;20.08;;;10.88;;
12214;SDS011;6170;42.206;24.142;2022-12-20T12:51:20;21.42;;;11.35;;
12214;SDS011;6170;42.206;24.142;2022-12-20T12:53:53;21.88;;;10.73;;
12214;SDS011;6170;42.206;24.142;2022-12-20T12:56:35;17.27;;;10.38;;
12214;SDS011;6170;42.206;24.142;2022-12-20T13:02:23;20.02;;;10.45;;
12214;SDS011;6170;42.206;24.142;2022-12-20T13:08:13;17.90;;;10.32;;
12214;SDS011;6170;42.206;24.142;2022-12-20T13:11:01;24.25;;;10.30;;
12214;SDS011;6170;42.206;24.142;2022-12-20T13:13:29;20.55;;;9.98;;
12214;SDS011;6170;42.206;24.142;2022-12-20T13:16:09;20.40;;;10.50;;
12214;SDS011;6170;42.206;24.142;2022-12-20T13:18:37;19.02;;;9.70;;
12214;SDS011;6170;42.206;24.142;2022-12-20T13:27:14;17.85;;;9.55;;
12214;SDS011;6170;42.206;24.142;2022-12-20T13:32:54;21.67;;;11.00;;
12214;SDS011;6170;42.206;24.142;2022-12-20T13:38:54;21.80;;;10.52;;
12214;SDS011;6170;42.206;24.142;2022-12-20T13:41:27;17.20;;;9.30;;
12214;SDS011;6170;42.206;24.142;2022-12-20T13:50:17;15.98;;;9.20;;
12214;SDS011;6170;42.206;24.142;2022-12-20T13:52:48;14.93;;;8.48;;
12214;SDS011;6170;42.206;24.142;2022-12-20T13:55:22;19.13;;;9.00;;
12214;SDS011;6170;42.206;24.142;2022-12-20T13:57:52;17.95;;;9.40;;
12214;SDS011;6170;42.206;24.142;2022-12-20T14:00:22;18.42;;;9.70;;
12214;SDS011;6170;42.206;24.142;2022-12-20T14:02:52;17.75;;;9.60;;
12214;SDS011;6170;42.206;24.142;2022-12-20T14:05:20;20.17;;;9.13;;
12214;SDS011;6170;42.206;24.142;2022-12-20T14:07:52;15.45;;;8.95;;
12214;SDS011;6170;42.206;24.142;2022-12-20T14:10:25;17.35;;;8.80;;
12214;SDS011;6170;42.206;24.142;2022-12-20T14:12:53;15.80;;;8.90;;
12214;SDS011;6170;42.206;24.142;2022-12-20T14:15:23;15.43;;;9.10;;
12214;SDS011;6170;42.206;24.142;2022-12-20T14:17:54;18.35;;;10.32;;
12214;SDS011;6170;42.206;24.142;2022-12-20T14:20:25;25.30;;;10.30;;
12214;SDS011;6170;42.206;24.142;2022-12-20T14:22:58;18.70;;;9.60;;
12214;SDS011;6170;42.206;24.142;2022-12-20T14:25:30;19.50;;;9.23;;
12214;SDS011;6170;42.206;24.142;2022-12-20T14:28:02;16.15;;;9.32;;
12214;SDS011;6170;42.206;24.142;2022-12-20T14:30:30;17.48;;;10.23;;
12214;SDS011;6170;42.206;24.142;2022-12-20T14:33:02;22.80;;;11.32;;
12214;SDS011;6170;42.206;24.142;2022-12-20T14:35:28;21.20;;;11.70;;
12214;SDS011;6170;42.206;24.142;2022-12-20T14:37:56;24.17;;;12.40;;
12214;SDS011;6170;42.206;24.142;2022-12-20T14:40:25;45.28;;;17.17;;
12214;SDS011;6170;42.206;24.142;2022-12-20T14:42:53;32.55;;;14.98;;
12214;SDS011;6170;42.206;24.142;2022-12-20T14:45:21;35.58;;;15.90;;
12214;SDS011;6170;42.206;24.142;2022-12-20T14:47:53;36.83;;;16.65;;
12214;SDS011;6170;42.206;24.142;2022-12-20T14:50:27;31.85;;;16.67;;
12214;SDS011;6170;42.206;24.142;2022-12-20T14:52:56;33.60;;;17.45;;
12214;SDS011;6170;42.206;24.142;2022-12-20T14:55:24;33.03;;;17.50;;
12214;SDS011;6170;42.206;24.142;2022-12-20T14:57:56;31.90;;;16.30;;
12214;SDS011;6170;42.206;24.142;2022-12-20T15:00:23;35.58;;;16.30;;
12214;SDS011;6170;42.206;24.142;2022-12-20T15:02:57;30.30;;;16.25;;
12214;SDS011;6170;42.206;24.142;2022-12-20T15:05:45;34.40;;;17.55;;
12214;SDS011;6170;42.206;24.142;2022-12-20T15:08:15;35.88;;;17.95;;
12214;SDS011;6170;42.206;24.142;2022-12-20T15:10:48;36.92;;;17.92;;
12214;SDS011;6170;42.206;24.142;2022-12-20T15:13:19;37.35;;;16.85;;
12214;SDS011;6170;42.206;24.142;2022-12-20T15:15:47;30.17;;;17.45;;